FMCAZ BGAA-BGSF
Flight info
| Callsign | FMCAZ |
|---|---|
| Flight time | 0h 39m |
| Altitude | 22000 |
| Route | NYGAR DCT LILGO |
| Aircraft | SF34/M-SBDE2E3FGHIJ4J5M1RWXY/LB1D1 |
Departure
| Time | 2026-04-29 13:56 |
|---|---|
| Airport | Aasiaat Airport (BGAA) |
Arrival
| Time | 2026-04-29 14:35 |
|---|---|
| Airport | Kangerlussuaq International Airport (BGSF) |
| Time | Latitude | Longitude | Altitude | Speed | Heading |
|---|---|---|---|---|---|
| 2026-04-29 13:33 | 68.72036 | -52.79216 | 5 ft | 0 kts | 258° |
| 2026-04-29 13:46 | 68.72036 | -52.79215 | 5 ft | 0 kts | 258° |
| 2026-04-29 13:51 | 68.72035 | -52.79228 | 5 ft | 0 kts | 258° |
| 2026-04-29 13:51 | 68.72036 | -52.79263 | 5 ft | 2 kts | 283° |
| 2026-04-29 13:52 | 68.72055 | -52.79311 | 5 ft | 3 kts | 334° |
| 2026-04-29 13:52 | 68.72071 | -52.79322 | 5 ft | 0 kts | 348° |
| 2026-04-29 13:52 | 68.72074 | -52.79324 | 5 ft | 0 kts | 348° |
| 2026-04-29 13:52 | 68.72075 | -52.79325 | 5 ft | 0 kts | 348° |
| 2026-04-29 13:53 | 68.72083 | -52.79329 | 5 ft | 6 kts | 348° |
| 2026-04-29 13:53 | 68.72131 | -52.79208 | 4 ft | 11 kts | 82° |
| 2026-04-29 13:53 | 68.72147 | -52.78987 | 5 ft | 22 kts | 77° |
| 2026-04-29 13:54 | 68.72176 | -52.78588 | 5 ft | 18 kts | 78° |
| 2026-04-29 13:54 | 68.72198 | -52.78265 | 5 ft | 15 kts | 81° |
| 2026-04-29 13:54 | 68.72218 | -52.77978 | 5 ft | 14 kts | 74° |
| 2026-04-29 13:54 | 68.72239 | -52.77682 | 5 ft | 15 kts | 79° |
| 2026-04-29 13:55 | 68.72250 | -52.77571 | 5 ft | 4 kts | 2° |
| 2026-04-29 13:55 | 68.72237 | -52.77845 | 5 ft | 45 kts | 257° |
| 2026-04-29 13:55 | 68.72134 | -52.79248 | 120 ft | 87 kts | 257° |
| 2026-04-29 13:55 | 68.71974 | -52.80742 | 516 ft | 81 kts | 231° |
| 2026-04-29 13:56 | 68.71481 | -52.80936 | 807 ft | 79 kts | 145° |
| 2026-04-29 13:56 | 68.71180 | -52.79646 | 1019 ft | 90 kts | 116° |
| 2026-04-29 13:56 | 68.70869 | -52.78208 | 1327 ft | 87 kts | 117° |
| 2026-04-29 13:56 | 68.70548 | -52.76804 | 1585 ft | 93 kts | 148° |
| 2026-04-29 13:57 | 68.69857 | -52.77085 | 1741 ft | 110 kts | 198° |
| 2026-04-29 13:57 | 68.69109 | -52.77130 | 1892 ft | 106 kts | 153° |
| 2026-04-29 13:57 | 68.68536 | -52.76016 | 2115 ft | 95 kts | 140° |
| 2026-04-29 13:57 | 68.68012 | -52.75106 | 2412 ft | 84 kts | 143° |
| 2026-04-29 13:58 | 68.67472 | -52.74308 | 2660 ft | 95 kts | 146° |
| 2026-04-29 13:58 | 68.66837 | -52.73489 | 2907 ft | 107 kts | 149° |
| 2026-04-29 13:58 | 68.66123 | -52.72660 | 3147 ft | 115 kts | 151° |
| 2026-04-29 13:58 | 68.65359 | -52.71835 | 3381 ft | 121 kts | 152° |
| 2026-04-29 13:59 | 68.64560 | -52.71009 | 3611 ft | 125 kts | 152° |
| 2026-04-29 13:59 | 68.63732 | -52.70176 | 3840 ft | 127 kts | 152° |
| 2026-04-29 13:59 | 68.62896 | -52.69344 | 4065 ft | 129 kts | 152° |
| 2026-04-29 13:59 | 68.62032 | -52.68490 | 4248 ft | 134 kts | 152° |
| 2026-04-29 14:00 | 68.61148 | -52.67621 | 4426 ft | 137 kts | 152° |
| 2026-04-29 14:00 | 68.60249 | -52.66740 | 4601 ft | 139 kts | 152° |
| 2026-04-29 14:00 | 68.59324 | -52.65835 | 4777 ft | 141 kts | 152° |
| 2026-04-29 14:00 | 68.58408 | -52.64940 | 4950 ft | 142 kts | 152° |
| 2026-04-29 14:01 | 68.57468 | -52.64023 | 5125 ft | 143 kts | 152° |
| 2026-04-29 14:01 | 68.56517 | -52.63096 | 5301 ft | 144 kts | 152° |
| 2026-04-29 14:01 | 68.55573 | -52.62176 | 5474 ft | 145 kts | 151° |
| 2026-04-29 14:01 | 68.54598 | -52.61171 | 5633 ft | 153 kts | 159° |
| 2026-04-29 14:02 | 68.53574 | -52.60197 | 5815 ft | 158 kts | 159° |
| 2026-04-29 14:02 | 68.52525 | -52.59195 | 5994 ft | 161 kts | 158° |
| 2026-04-29 14:02 | 68.51459 | -52.58168 | 6172 ft | 163 kts | 158° |
| 2026-04-29 14:02 | 68.50387 | -52.57132 | 6349 ft | 164 kts | 158° |
| 2026-04-29 14:03 | 68.49321 | -52.56102 | 6543 ft | 167 kts | 158° |
| 2026-04-29 14:03 | 68.48216 | -52.55031 | 6723 ft | 170 kts | 158° |
| 2026-04-29 14:03 | 68.47098 | -52.53949 | 6900 ft | 172 kts | 158° |
| 2026-04-29 14:03 | 68.45956 | -52.52845 | 7077 ft | 174 kts | 158° |
| 2026-04-29 14:04 | 68.44821 | -52.51750 | 7252 ft | 175 kts | 158° |
| 2026-04-29 14:04 | 68.43659 | -52.50629 | 7430 ft | 176 kts | 158° |
| 2026-04-29 14:04 | 68.42511 | -52.49525 | 7605 ft | 177 kts | 158° |
| 2026-04-29 14:04 | 68.41392 | -52.48449 | 7775 ft | 178 kts | 158° |
| 2026-04-29 14:05 | 68.40204 | -52.47311 | 7954 ft | 179 kts | 158° |
| 2026-04-29 14:05 | 68.39040 | -52.46196 | 8129 ft | 180 kts | 158° |
| 2026-04-29 14:05 | 68.37839 | -52.45047 | 8308 ft | 181 kts | 158° |
| 2026-04-29 14:05 | 68.36643 | -52.43903 | 8486 ft | 182 kts | 158° |
| 2026-04-29 14:06 | 68.35452 | -52.42764 | 8663 ft | 183 kts | 158° |
| 2026-04-29 14:06 | 68.34244 | -52.41610 | 8842 ft | 183 kts | 158° |
| 2026-04-29 14:06 | 68.33034 | -52.40456 | 9020 ft | 184 kts | 158° |
| 2026-04-29 14:06 | 68.31825 | -52.39303 | 9198 ft | 185 kts | 158° |
| 2026-04-29 14:07 | 68.30613 | -52.38150 | 9376 ft | 185 kts | 158° |
| 2026-04-29 14:07 | 68.29391 | -52.36988 | 9555 ft | 186 kts | 158° |
| 2026-04-29 14:07 | 68.28178 | -52.35836 | 9732 ft | 186 kts | 158° |
| 2026-04-29 14:07 | 68.27031 | -52.34747 | 9899 ft | 187 kts | 159° |
| 2026-04-29 14:08 | 68.25803 | -52.33583 | 10077 ft | 187 kts | 160° |
| 2026-04-29 14:08 | 68.23926 | -52.31809 | 10157 ft | 197 kts | 160° |
| 2026-04-29 14:08 | 68.21688 | -52.29396 | 10159 ft | 202 kts | 155° |
| 2026-04-29 14:08 | 68.19380 | -52.26753 | 10158 ft | 204 kts | 155° |
| 2026-04-29 14:09 | 68.15748 | -52.22605 | 10158 ft | 204 kts | 155° |
| 2026-04-29 14:09 | 68.12346 | -52.18735 | 10158 ft | 204 kts | 155° |
| 2026-04-29 14:09 | 68.10986 | -52.17191 | 10158 ft | 204 kts | 155° |
| 2026-04-29 14:09 | 68.09633 | -52.15654 | 10122 ft | 218 kts | 155° |
| 2026-04-29 14:10 | 68.08199 | -52.14027 | 10157 ft | 227 kts | 155° |
| 2026-04-29 14:10 | 68.06723 | -52.12360 | 10161 ft | 233 kts | 155° |
| 2026-04-29 14:10 | 68.05233 | -52.10678 | 10161 ft | 236 kts | 155° |
| 2026-04-29 14:10 | 68.03691 | -52.08941 | 10160 ft | 238 kts | 155° |
| 2026-04-29 14:11 | 68.02162 | -52.07220 | 10160 ft | 239 kts | 155° |
| 2026-04-29 14:11 | 68.00631 | -52.05499 | 10160 ft | 240 kts | 155° |
| 2026-04-29 14:11 | 67.99071 | -52.03748 | 10159 ft | 240 kts | 155° |
| 2026-04-29 14:11 | 67.97530 | -52.02023 | 10154 ft | 241 kts | 155° |
| 2026-04-29 14:12 | 67.95972 | -52.00278 | 10149 ft | 241 kts | 155° |
| 2026-04-29 14:12 | 67.94437 | -51.98563 | 10144 ft | 241 kts | 155° |
| 2026-04-29 14:12 | 67.92885 | -51.96831 | 10139 ft | 241 kts | 155° |
| 2026-04-29 14:12 | 67.91339 | -51.95108 | 10134 ft | 241 kts | 155° |
| 2026-04-29 14:13 | 67.89776 | -51.93368 | 10127 ft | 241 kts | 155° |
| 2026-04-29 14:13 | 67.88229 | -51.91650 | 10115 ft | 241 kts | 155° |
| 2026-04-29 14:13 | 67.86689 | -51.89942 | 10109 ft | 240 kts | 155° |
| 2026-04-29 14:13 | 67.85133 | -51.88218 | 10104 ft | 240 kts | 155° |
| 2026-04-29 14:14 | 67.83607 | -51.86529 | 10099 ft | 240 kts | 155° |
| 2026-04-29 14:14 | 67.82086 | -51.84849 | 10098 ft | 240 kts | 155° |
| 2026-04-29 14:14 | 67.80534 | -51.83137 | 10098 ft | 239 kts | 155° |
| 2026-04-29 14:14 | 67.79004 | -51.81451 | 10098 ft | 239 kts | 155° |
| 2026-04-29 14:15 | 67.77460 | -51.79753 | 10098 ft | 239 kts | 155° |
| 2026-04-29 14:15 | 67.75912 | -51.78052 | 10099 ft | 239 kts | 155° |
| 2026-04-29 14:15 | 67.74347 | -51.76335 | 10099 ft | 239 kts | 155° |
| 2026-04-29 14:15 | 67.72824 | -51.74456 | 10098 ft | 238 kts | 148° |
| 2026-04-29 14:16 | 67.71378 | -51.72342 | 10099 ft | 238 kts | 147° |
| 2026-04-29 14:16 | 67.69833 | -51.70739 | 10098 ft | 240 kts | 168° |
| 2026-04-29 14:16 | 67.68173 | -51.69806 | 10100 ft | 240 kts | 168° |
| 2026-04-29 14:16 | 67.66536 | -51.68975 | 10100 ft | 240 kts | 169° |
| 2026-04-29 14:17 | 67.64905 | -51.68173 | 10100 ft | 240 kts | 169° |
| 2026-04-29 14:17 | 67.63248 | -51.67370 | 10100 ft | 240 kts | 169° |
| 2026-04-29 14:17 | 67.61618 | -51.66585 | 10100 ft | 240 kts | 169° |
| 2026-04-29 14:17 | 67.59950 | -51.65786 | 10100 ft | 240 kts | 169° |
| 2026-04-29 14:18 | 67.58306 | -51.65001 | 10100 ft | 240 kts | 169° |
| 2026-04-29 14:18 | 67.56665 | -51.64218 | 10100 ft | 240 kts | 169° |
| 2026-04-29 14:18 | 67.55023 | -51.63437 | 10101 ft | 240 kts | 169° |
| 2026-04-29 14:18 | 67.53385 | -51.62658 | 10100 ft | 240 kts | 169° |
| 2026-04-29 14:19 | 67.51733 | -51.61874 | 10102 ft | 240 kts | 169° |
| 2026-04-29 14:19 | 67.50093 | -51.61097 | 10101 ft | 240 kts | 169° |
| 2026-04-29 14:19 | 67.48452 | -51.60321 | 10101 ft | 240 kts | 169° |
| 2026-04-29 14:19 | 67.46840 | -51.59560 | 10101 ft | 240 kts | 169° |
| 2026-04-29 14:20 | 67.45215 | -51.58793 | 10102 ft | 240 kts | 169° |
| 2026-04-29 14:20 | 67.43591 | -51.58028 | 10102 ft | 240 kts | 169° |
| 2026-04-29 14:20 | 67.41970 | -51.57265 | 10102 ft | 240 kts | 169° |
| 2026-04-29 14:20 | 67.40345 | -51.56502 | 10102 ft | 240 kts | 169° |
| 2026-04-29 14:21 | 67.38754 | -51.55756 | 10102 ft | 240 kts | 169° |
| 2026-04-29 14:21 | 67.37094 | -51.54978 | 10038 ft | 243 kts | 169° |
| 2026-04-29 14:21 | 67.35403 | -51.54186 | 9895 ft | 248 kts | 169° |
| 2026-04-29 14:21 | 67.33684 | -51.53381 | 9749 ft | 250 kts | 169° |
| 2026-04-29 14:22 | 67.31987 | -51.52590 | 9604 ft | 251 kts | 169° |
| 2026-04-29 14:22 | 67.30271 | -51.51791 | 9383 ft | 254 kts | 169° |
| 2026-04-29 14:22 | 67.28527 | -51.50981 | 9046 ft | 259 kts | 169° |
| 2026-04-29 14:22 | 67.26768 | -51.50164 | 8706 ft | 261 kts | 169° |
| 2026-04-29 14:23 | 67.24982 | -51.49336 | 8361 ft | 261 kts | 169° |
| 2026-04-29 14:23 | 67.23204 | -51.48513 | 8017 ft | 260 kts | 169° |
| 2026-04-29 14:23 | 67.21458 | -51.47706 | 7676 ft | 259 kts | 169° |
| 2026-04-29 14:23 | 67.19729 | -51.46907 | 7337 ft | 257 kts | 169° |
| 2026-04-29 14:24 | 67.17966 | -51.46095 | 6988 ft | 255 kts | 169° |
| 2026-04-29 14:24 | 67.16234 | -51.45298 | 6643 ft | 253 kts | 169° |
| 2026-04-29 14:24 | 67.14522 | -51.44511 | 6254 ft | 253 kts | 169° |
| 2026-04-29 14:24 | 67.12807 | -51.43724 | 5860 ft | 251 kts | 169° |
| 2026-04-29 14:25 | 67.11119 | -51.42950 | 5558 ft | 246 kts | 169° |
| 2026-04-29 14:25 | 67.09476 | -51.42197 | 5506 ft | 234 kts | 169° |
| 2026-04-29 14:25 | 67.07975 | -51.41510 | 5501 ft | 227 kts | 169° |
| 2026-04-29 14:25 | 67.06421 | -51.40801 | 5501 ft | 223 kts | 169° |
| 2026-04-29 14:26 | 67.04880 | -51.40098 | 5502 ft | 221 kts | 169° |
| 2026-04-29 14:26 | 67.03403 | -51.39425 | 5503 ft | 220 kts | 169° |
| 2026-04-29 14:26 | 67.01864 | -51.38726 | 5503 ft | 220 kts | 169° |
| 2026-04-29 14:26 | 67.00384 | -51.38054 | 5504 ft | 219 kts | 169° |
| 2026-04-29 14:27 | 66.98879 | -51.37370 | 5503 ft | 219 kts | 169° |
| 2026-04-29 14:27 | 66.97507 | -51.35853 | 5505 ft | 217 kts | 149° |
| 2026-04-29 14:27 | 66.96214 | -51.34031 | 5503 ft | 218 kts | 149° |
| 2026-04-29 14:28 | 66.93499 | -51.30178 | 5076 ft | 231 kts | 149° |
| 2026-04-29 14:28 | 66.92142 | -51.28265 | 4818 ft | 233 kts | 149° |
| 2026-04-29 14:28 | 66.90923 | -51.25667 | 4505 ft | 229 kts | 119° |
| 2026-04-29 14:28 | 66.90553 | -51.21898 | 4188 ft | 221 kts | 84° |
| 2026-04-29 14:29 | 66.91098 | -51.18361 | 3797 ft | 215 kts | 57° |
| 2026-04-29 14:29 | 66.91827 | -51.15076 | 3428 ft | 214 kts | 58° |
| 2026-04-29 14:29 | 66.92558 | -51.11744 | 3053 ft | 213 kts | 58° |
| 2026-04-29 14:29 | 66.93228 | -51.08653 | 2743 ft | 183 kts | 58° |
| 2026-04-29 14:30 | 66.93801 | -51.05999 | 2538 ft | 166 kts | 58° |
| 2026-04-29 14:30 | 66.94337 | -51.03517 | 2361 ft | 160 kts | 58° |
| 2026-04-29 14:30 | 66.94857 | -51.01097 | 2188 ft | 157 kts | 59° |
| 2026-04-29 14:30 | 66.95378 | -50.98672 | 2029 ft | 156 kts | 59° |
| 2026-04-29 14:31 | 66.95896 | -50.96251 | 1880 ft | 155 kts | 59° |
| 2026-04-29 14:31 | 66.96410 | -50.93847 | 1734 ft | 154 kts | 59° |
| 2026-04-29 14:31 | 66.96922 | -50.91443 | 1616 ft | 153 kts | 59° |
| 2026-04-29 14:31 | 66.97433 | -50.89050 | 1485 ft | 156 kts | 63° |
| 2026-04-29 14:32 | 66.97958 | -50.86594 | 1396 ft | 158 kts | 62° |
| 2026-04-29 14:32 | 66.98476 | -50.84134 | 1407 ft | 156 kts | 64° |
| 2026-04-29 14:32 | 66.98537 | -50.81453 | 1405 ft | 153 kts | 109° |
| 2026-04-29 14:32 | 66.98260 | -50.78824 | 1407 ft | 154 kts | 99° |
| 2026-04-29 14:33 | 66.98535 | -50.76266 | 1407 ft | 148 kts | 59° |
| 2026-04-29 14:33 | 66.99003 | -50.74309 | 1446 ft | 121 kts | 58° |
| 2026-04-29 14:33 | 66.99482 | -50.72479 | 1330 ft | 122 kts | 57° |
| 2026-04-29 14:33 | 66.99880 | -50.70890 | 1139 ft | 94 kts | 61° |
| 2026-04-29 14:34 | 67.00266 | -50.69542 | 1077 ft | 94 kts | 55° |
| 2026-04-29 14:34 | 67.00646 | -50.68247 | 993 ft | 88 kts | 58° |
| 2026-04-29 14:34 | 67.00984 | -50.66882 | 909 ft | 96 kts | 57° |
| 2026-04-29 14:34 | 67.01531 | -50.66395 | 608 ft | 83 kts | 336° |
| 2026-04-29 14:35 | 67.01871 | -50.67544 | 439 ft | 87 kts | 275° |
| 2026-04-29 14:35 | 67.01665 | -50.68998 | 273 ft | 84 kts | 240° |
| 2026-04-29 14:35 | 67.01448 | -50.70107 | 215 ft | 47 kts | 241° |
| 2026-04-29 14:35 | 67.01348 | -50.70381 | 197 ft | 17 kts | 165° |
| 2026-04-29 14:36 | 67.01253 | -50.70333 | 181 ft | 14 kts | 167° |
| 2026-04-29 14:36 | 67.01135 | -50.70192 | 154 ft | 17 kts | 139° |
| 2026-04-29 14:36 | 67.01112 | -50.70071 | 146 ft | 0 kts | 13° |